createdAt,value
2018-09-12T00:01:55.140Z,97875.59
2018-09-12T00:04:22.602Z,97882.30
2018-09-12T00:06:50.082Z,97880.63
2018-09-12T00:09:17.588Z,97878.81
2018-09-12T00:11:45.018Z,97874.89
2018-09-12T00:14:12.471Z,97877.47
2018-09-12T00:16:39.948Z,97880.29
2018-09-12T00:19:07.346Z,97876.84
2018-09-12T00:21:34.852Z,97873.05
2018-09-12T00:24:02.305Z,97862.80
2018-09-12T00:26:29.729Z,97869.33
2018-09-12T00:28:57.214Z,97871.80
2018-09-12T00:31:24.674Z,97879.00
2018-09-12T00:33:52.115Z,97875.70
2018-09-12T00:36:19.577Z,97876.20
2018-09-12T00:38:47.324Z,97877.46
2018-09-12T00:41:15.096Z,97873.35
2018-09-12T00:43:42.535Z,97876.35
2018-09-12T00:46:09.959Z,97871.78
2018-09-12T00:48:37.423Z,97877.52
2018-09-12T00:51:04.855Z,97878.80
2018-09-12T00:53:32.323Z,97875.64
2018-09-12T00:55:59.754Z,97865.28
2018-09-12T00:58:27.342Z,97867.45
2018-09-12T01:00:54.801Z,97865.49
2018-09-12T01:03:22.225Z,97867.98
2018-09-12T01:05:49.632Z,97855.75
2018-09-12T01:08:17.141Z,97853.55
2018-09-12T01:10:44.763Z,97861.06
2018-09-12T01:13:12.228Z,97857.25
2018-09-12T01:15:39.673Z,97855.34
2018-09-12T01:18:07.110Z,97851.93
2018-09-12T01:20:34.546Z,97855.62
2018-09-12T01:23:02.006Z,97855.40
2018-09-12T01:25:29.478Z,97855.93
2018-09-12T01:27:57.024Z,97855.23
2018-09-12T01:30:24.510Z,97850.52
2018-09-12T01:32:51.935Z,97851.08
2018-09-12T01:35:19.392Z,97848.88
2018-09-12T01:37:46.887Z,97849.13
2018-09-12T01:40:14.330Z,97851.28
2018-09-12T01:42:41.780Z,97853.25
2018-09-12T01:45:09.258Z,97848.33
2018-09-12T01:47:37.540Z,97857.52
2018-09-12T01:50:04.990Z,97850.70
2018-09-12T01:52:32.399Z,97850.09
2018-09-12T01:54:59.913Z,97848.94
2018-09-12T01:57:27.337Z,97848.08
2018-09-12T01:59:54.743Z,97844.78
2018-09-12T02:02:22.177Z,97849.27
2018-09-12T02:04:49.646Z,97855.19
2018-09-12T02:07:17.140Z,97848.23
2018-09-12T02:09:44.597Z,97853.30
2018-09-12T02:12:12.033Z,97851.13
2018-09-12T02:14:39.443Z,97854.27
2018-09-12T02:17:06.865Z,97853.73
2018-09-12T02:19:34.308Z,97858.25
2018-09-12T02:22:01.776Z,97859.37
2018-09-12T02:24:29.241Z,97858.42
2018-09-12T02:26:56.859Z,97857.57
2018-09-12T02:29:24.351Z,97857.52
2018-09-12T02:31:51.905Z,97861.09
2018-09-12T02:34:19.317Z,97861.31
2018-09-12T02:36:46.767Z,97855.08
2018-09-12T02:39:14.246Z,97858.03
2018-09-12T02:41:41.744Z,97864.09
2018-09-12T02:44:09.209Z,97865.09
2018-09-12T02:46:36.684Z,97861.56
2018-09-12T02:49:04.156Z,97851.95
2018-09-12T02:51:31.687Z,97850.13
2018-09-12T02:53:59.156Z,97847.86
2018-09-12T02:56:26.578Z,97841.30
2018-09-12T03:02:08.541Z,97842.52
2018-09-12T03:04:35.950Z,97841.05
2018-09-12T03:07:03.436Z,97841.64
2018-09-12T03:09:30.880Z,97835.29
2018-09-12T03:11:58.291Z,97838.77
2018-09-12T03:14:25.774Z,97836.39
2018-09-12T03:16:53.200Z,97837.97
2018-09-12T03:19:20.611Z,97841.75
2018-09-12T03:21:48.063Z,97830.02
2018-09-12T03:24:15.540Z,97829.21
2018-09-12T03:26:43.001Z,97828.42
2018-09-12T03:29:10.404Z,97827.81
2018-09-12T03:31:37.922Z,97824.64
2018-09-12T03:34:05.391Z,97831.23
2018-09-12T03:36:32.874Z,97823.13
2018-09-12T03:39:00.322Z,97829.24
2018-09-12T03:41:27.793Z,97819.16
2018-09-12T03:43:55.244Z,97820.86
2018-09-12T03:46:22.705Z,97820.76
2018-09-12T03:48:50.148Z,97820.14
2018-09-12T03:51:17.587Z,97816.00
2018-09-12T03:53:44.993Z,97818.02
2018-09-12T03:56:12.452Z,97818.24
2018-09-12T03:58:39.867Z,97825.52
2018-09-12T04:01:07.351Z,97819.59
2018-09-12T04:03:34.831Z,97819.95
2018-09-12T04:06:02.309Z,97819.64
2018-09-12T04:08:29.755Z,97821.16
2018-09-12T04:10:57.176Z,97814.97
2018-09-12T04:13:25.248Z,97818.06
2018-09-12T04:15:52.756Z,97815.28
2018-09-12T04:18:20.293Z,97821.02
2018-09-12T04:20:47.783Z,97821.59
2018-09-12T04:23:15.186Z,97811.80
2018-09-12T04:25:42.663Z,97818.63
2018-09-12T04:28:10.188Z,97820.39
2018-09-12T04:30:38.468Z,97827.48
2018-09-12T04:33:05.892Z,97823.94
2018-09-12T04:35:33.476Z,97820.14
2018-09-12T04:38:01.872Z,97823.97
2018-09-12T04:40:29.733Z,97824.86
2018-09-12T04:42:57.241Z,97819.86
2018-09-12T04:45:24.668Z,97828.40
2018-09-12T04:47:52.128Z,97834.66
2018-09-12T04:50:21.268Z,97826.59
2018-09-12T04:52:52.059Z,97825.78
2018-09-12T04:55:19.546Z,97822.74
2018-09-12T04:57:47.462Z,97826.83
2018-09-12T05:00:14.908Z,97835.29
2018-09-12T05:02:42.400Z,97842.33
2018-09-12T05:05:09.898Z,97839.71
2018-09-12T05:07:37.596Z,97846.92
2018-09-12T05:10:05.116Z,97848.94
2018-09-12T05:12:32.576Z,97844.58
2018-09-12T05:14:59.995Z,97836.95
2018-09-12T05:17:28.210Z,97839.03
2018-09-12T05:19:55.847Z,97833.02
2018-09-12T05:22:23.317Z,97842.98
2018-09-12T05:24:50.732Z,97848.96
2018-09-12T05:27:18.240Z,97841.68
2018-09-12T05:29:45.688Z,97840.05
2018-09-12T05:32:13.279Z,97840.39
2018-09-12T05:34:40.720Z,97841.15
2018-09-12T05:37:08.130Z,97839.78
2018-09-12T05:39:35.632Z,97840.84
2018-09-12T05:42:03.171Z,97838.23
2018-09-12T05:44:30.618Z,97846.14
2018-09-12T05:46:58.027Z,97841.34
2018-09-12T05:49:25.563Z,97836.88
2018-09-12T05:51:53.060Z,97841.08
2018-09-12T05:54:20.531Z,97846.07
2018-09-12T05:56:48.075Z,97843.15
2018-09-12T05:59:15.678Z,97835.43
2018-09-12T06:01:44.344Z,97837.52
2018-09-12T06:04:11.832Z,97844.93
2018-09-12T06:06:39.424Z,97841.09
2018-09-12T06:09:06.847Z,97835.30
2018-09-12T06:11:34.330Z,97834.86
2018-09-12T06:14:01.804Z,97844.65
2018-09-12T06:16:29.537Z,97846.13
2018-09-12T06:18:57.052Z,97846.44
2018-09-12T06:21:24.599Z,97850.87
2018-09-12T06:23:52.082Z,97848.17
2018-09-12T06:26:19.573Z,97841.22
2018-09-12T06:28:47.008Z,97845.70
2018-09-12T06:31:15.029Z,97836.28
2018-09-12T06:33:42.439Z,97841.42
2018-09-12T06:36:10.033Z,97841.28
2018-09-12T06:38:37.694Z,97840.04
2018-09-12T06:41:05.168Z,97843.01
2018-09-12T06:43:32.767Z,97844.13
2018-09-12T06:46:00.220Z,97845.91
2018-09-12T06:48:27.802Z,97839.60
2018-09-12T06:50:55.210Z,97839.80
2018-09-12T06:53:22.695Z,97840.28
2018-09-12T06:55:50.138Z,97846.14
2018-09-12T06:58:17.636Z,97840.63
2018-09-12T07:00:45.265Z,97838.97
2018-09-12T07:03:12.904Z,97842.47
2018-09-12T07:05:40.364Z,97842.49
2018-09-12T07:08:07.824Z,97843.73
2018-09-12T07:10:35.285Z,97846.83
2018-09-12T07:13:02.776Z,97853.31
2018-09-12T07:15:30.211Z,97854.09
2018-09-12T07:17:57.740Z,97847.55
2018-09-12T07:20:25.224Z,97849.39
2018-09-12T07:22:52.661Z,97856.64
2018-09-12T07:25:20.105Z,97863.00
2018-09-12T07:27:47.633Z,97857.28
2018-09-12T07:30:15.214Z,97866.20
2018-09-12T07:32:42.203Z,97860.98
2018-09-12T07:35:09.705Z,97864.20
2018-09-12T07:37:37.195Z,97862.09
2018-09-12T07:40:04.757Z,97864.29
2018-09-12T07:42:31.739Z,97865.06
2018-09-12T07:44:58.769Z,97862.52
2018-09-12T07:47:25.924Z,97860.22
2018-09-12T07:49:52.924Z,97860.34
2018-09-12T07:52:19.989Z,97866.21
2018-09-12T07:54:46.980Z,97870.87
2018-09-12T07:57:14.448Z,97866.30
2018-09-12T07:59:42.002Z,97863.86
2018-09-12T08:02:09.452Z,97858.59
2018-09-12T08:04:36.939Z,97850.47
2018-09-12T08:07:04.436Z,97845.88
2018-09-12T08:09:31.868Z,97855.05
2018-09-12T08:11:59.276Z,97851.47
2018-09-12T08:14:26.720Z,97852.94
2018-09-12T08:16:54.214Z,97853.80
2018-09-12T08:19:22.067Z,97859.71
2018-09-12T08:21:49.605Z,97857.71
2018-09-12T08:24:17.142Z,97855.19
2018-09-12T08:26:44.661Z,97849.12
2018-09-12T08:29:11.736Z,97854.64
2018-09-12T08:31:39.207Z,97851.73
2018-09-12T08:34:06.748Z,97846.65
2018-09-12T08:36:34.347Z,97839.62
2018-09-12T08:39:01.248Z,97839.77
2018-09-12T08:41:28.757Z,97841.19
2018-09-12T08:43:56.287Z,97834.10
2018-09-12T08:46:23.355Z,97841.05
2018-09-12T08:48:50.381Z,97843.78
2018-09-12T08:51:17.396Z,97841.06
2018-09-12T08:53:44.409Z,97839.02
2018-09-12T08:56:11.497Z,97834.11
2018-09-12T08:58:38.454Z,97832.61
2018-09-12T09:01:06.112Z,97837.04
2018-09-12T09:03:33.571Z,97832.27
2018-09-12T09:06:01.117Z,97839.27
2018-09-12T09:08:28.585Z,97831.55
2018-09-12T09:10:56.276Z,97837.13
2018-09-12T09:13:23.945Z,97831.05
2018-09-12T09:15:51.481Z,97835.42
2018-09-12T09:18:18.940Z,97827.30
2018-09-12T09:20:46.435Z,97827.96
2018-09-12T09:23:13.883Z,97829.14
2018-09-12T09:25:41.345Z,97823.34
2018-09-12T09:28:09.095Z,97817.56
2018-09-12T09:30:36.567Z,97818.55
2018-09-12T09:33:04.094Z,97815.43
2018-09-12T09:35:31.695Z,97808.16
2018-09-12T09:37:59.065Z,97807.00
2018-09-12T09:40:26.662Z,97811.92
2018-09-12T09:42:54.108Z,97808.01
2018-09-12T09:45:21.535Z,97803.75
2018-09-12T09:47:49.103Z,97804.81
2018-09-12T09:50:16.473Z,97803.05
2018-09-12T09:52:43.933Z,97800.45
2018-09-12T09:55:11.514Z,97795.54
2018-09-12T09:57:38.806Z,97793.92
2018-09-12T10:00:06.354Z,97797.33
2018-09-12T10:02:34.737Z,97789.09
2018-09-12T10:05:02.146Z,97786.50
2018-09-12T10:07:29.720Z,97794.09
2018-09-12T10:09:57.331Z,97781.32
2018-09-12T10:12:24.801Z,97773.94
2018-09-12T10:14:52.372Z,97768.48
2018-09-12T10:17:19.901Z,97765.99
2018-09-12T10:19:47.424Z,97767.79
2018-09-12T10:22:14.917Z,97764.35
2018-09-12T10:24:42.518Z,97758.89
2018-09-12T10:27:09.996Z,97754.33
2018-09-12T10:29:37.457Z,97749.62
2018-09-12T10:32:04.858Z,97749.48
2018-09-12T10:34:32.348Z,97743.95
2018-09-12T10:36:59.842Z,97752.70
2018-09-12T10:39:27.427Z,97741.32
2018-09-12T10:41:54.920Z,97735.19
2018-09-12T10:44:22.441Z,97730.78
2018-09-12T10:46:49.981Z,97730.98
2018-09-12T10:49:17.428Z,97733.70
2018-09-12T10:51:44.889Z,97727.23
2018-09-12T10:54:13.089Z,97724.82
2018-09-12T10:56:40.616Z,97724.14
2018-09-12T10:59:08.212Z,97713.20
2018-09-12T11:01:35.659Z,97712.38
2018-09-12T11:04:03.294Z,97713.78
2018-09-12T11:06:30.826Z,97711.12
2018-09-12T11:08:58.283Z,97715.41
2018-09-12T11:11:26.828Z,97704.95
2018-09-12T11:13:54.355Z,97694.59
2018-09-12T11:16:21.822Z,97695.67
2018-09-12T11:18:49.402Z,97687.78
2018-09-12T11:21:16.886Z,97685.06
2018-09-12T11:23:44.309Z,97683.14
2018-09-12T11:26:11.805Z,97679.85
2018-09-12T11:28:39.294Z,97674.88
2018-09-12T11:31:06.838Z,97680.05
2018-09-12T11:33:34.269Z,97669.19
2018-09-12T11:36:01.769Z,97673.75
2018-09-12T11:38:29.399Z,97669.98
2018-09-12T11:40:56.888Z,97670.88
2018-09-12T11:43:24.443Z,97660.72
2018-09-12T11:45:51.918Z,97654.02
2018-09-12T11:48:19.505Z,97652.06
2018-09-12T11:50:47.542Z,97652.55
2018-09-12T11:53:15.026Z,97647.69
2018-09-12T11:55:43.081Z,97635.64
2018-09-12T11:58:11.740Z,97631.93
2018-09-12T12:00:39.706Z,97632.41
2018-09-12T12:03:07.173Z,97624.95
2018-09-12T12:05:34.701Z,97629.94
2018-09-12T12:08:02.183Z,97609.55
2018-09-12T12:10:29.707Z,97618.16
2018-09-12T12:12:57.164Z,97603.20
2018-09-12T12:15:24.707Z,97605.72
2018-09-12T12:17:51.661Z,97592.29
2018-09-12T12:20:18.681Z,97585.44
2018-09-12T12:22:45.651Z,97585.08
2018-09-12T12:25:13.158Z,97580.59
2018-09-12T12:27:40.165Z,97573.47
2018-09-12T12:30:07.614Z,97567.51
2018-09-12T12:32:35.167Z,97565.47
2018-09-12T12:35:02.615Z,97561.26
2018-09-12T12:37:30.102Z,97557.61
2018-09-12T12:39:57.695Z,97546.36
2018-09-12T12:42:25.178Z,97537.32
2018-09-12T12:44:52.700Z,97538.64
2018-09-12T12:47:20.123Z,97531.56
2018-09-12T12:49:47.643Z,97534.44
2018-09-12T12:52:15.125Z,97523.95
2018-09-12T12:54:42.582Z,97518.42
2018-09-12T12:57:10.042Z,97513.75
2018-09-12T12:59:37.533Z,97511.70
2018-09-12T13:02:05.085Z,97498.63
2018-09-12T13:04:32.809Z,97493.86
2018-09-12T13:07:00.257Z,97496.99
2018-09-12T13:09:27.861Z,97495.36
2018-09-12T13:11:55.395Z,97497.95
2018-09-12T13:14:22.915Z,97488.50
2018-09-12T13:16:50.400Z,97494.19
2018-09-12T13:19:17.832Z,97484.72
2018-09-12T13:21:45.455Z,97482.92
2018-09-12T13:24:12.944Z,97484.67
2018-09-12T13:26:40.412Z,97475.16
2018-09-12T13:29:07.940Z,97467.69
2018-09-12T13:31:35.484Z,97466.47
2018-09-12T13:34:02.975Z,97465.55
2018-09-12T13:36:30.444Z,97458.84
2018-09-12T13:38:57.951Z,97458.30
2018-09-12T13:41:25.407Z,97452.12
2018-09-12T13:43:52.894Z,97450.17
2018-09-12T13:46:20.431Z,97440.64
2018-09-12T13:48:47.896Z,97448.98
2018-09-12T13:51:15.472Z,97453.69
2018-09-12T13:53:43.017Z,97450.70
2018-09-12T13:56:10.554Z,97440.03
2018-09-12T13:58:38.038Z,97441.11
2018-09-12T14:01:05.624Z,97435.08
2018-09-12T14:03:33.083Z,97434.72
2018-09-12T14:06:00.519Z,97431.22
2018-09-12T14:08:28.782Z,97433.45
2018-09-12T14:10:56.193Z,97428.50
2018-09-12T14:13:23.745Z,97429.14
2018-09-12T14:15:51.349Z,97426.17
2018-09-12T14:18:18.816Z,97427.53
2018-09-12T14:20:46.287Z,97424.55
2018-09-12T14:23:13.782Z,97424.97
2018-09-12T14:25:41.444Z,97420.09
2018-09-12T14:28:08.917Z,97406.49
2018-09-12T14:30:36.382Z,97414.50
2018-09-12T14:33:04.040Z,97408.60
2018-09-12T14:35:31.538Z,97410.67
2018-09-12T14:37:58.992Z,97408.68
2018-09-12T14:40:26.464Z,97411.48
2018-09-12T14:42:53.948Z,97398.20
2018-09-12T14:45:21.476Z,97396.27
2018-09-12T14:47:48.929Z,97386.55
2018-09-12T14:50:16.507Z,97383.11
2018-09-12T14:52:43.988Z,97383.16
2018-09-12T14:55:11.411Z,97377.45
2018-09-12T14:57:39.122Z,97380.58
2018-09-12T15:00:06.929Z,97383.98
2018-09-12T15:02:34.970Z,97379.70
2018-09-12T15:05:02.402Z,97380.21
2018-09-12T15:07:29.892Z,97380.26
2018-09-12T15:09:57.367Z,97376.16
2018-09-12T15:12:24.819Z,97382.94
2018-09-12T15:14:52.311Z,97372.26
2018-09-12T15:17:19.882Z,97368.42
2018-09-12T15:19:47.324Z,97365.73
2018-09-12T15:22:14.796Z,97356.86
2018-09-12T15:24:41.767Z,97357.72
2018-09-12T15:27:09.591Z,97362.30
2018-09-12T15:29:36.618Z,97365.14
2018-09-12T15:32:03.755Z,97370.31
2018-09-12T15:34:30.842Z,97366.18
2018-09-12T15:36:57.824Z,97360.66
2018-09-12T15:39:24.949Z,97361.99
2018-09-12T15:41:52.008Z,97359.50
2018-09-12T15:44:19.051Z,97359.52
2018-09-12T15:46:46.037Z,97354.97
2018-09-12T15:49:14.007Z,97350.70
2018-09-12T15:51:41.006Z,97356.79
2018-09-12T15:54:08.071Z,97348.72
2018-09-12T15:56:35.064Z,97353.72
2018-09-12T15:59:02.066Z,97346.52
2018-09-12T16:01:29.068Z,97346.36
2018-09-12T16:03:56.152Z,97355.07
2018-09-12T16:06:23.085Z,97338.59
2018-09-12T16:08:50.112Z,97335.66
2018-09-12T16:11:17.148Z,97341.49
2018-09-12T16:13:44.216Z,97335.67
2018-09-12T16:16:11.183Z,97334.09
2018-09-12T16:18:38.142Z,97324.53
2018-09-12T16:21:05.134Z,97329.00
2018-09-12T16:23:32.106Z,97333.11
2018-09-12T16:25:59.170Z,97325.28
2018-09-12T16:28:26.170Z,97331.44
2018-09-12T16:30:53.342Z,97328.73
2018-09-12T16:33:20.400Z,97322.66
2018-09-12T16:35:47.388Z,97329.93
2018-09-12T16:38:14.811Z,97327.95
2018-09-12T16:40:41.895Z,97327.33
2018-09-12T16:43:08.857Z,97330.77
2018-09-12T16:45:36.110Z,97324.30
2018-09-12T16:48:03.316Z,97324.97
2018-09-12T16:50:30.316Z,97329.58
2018-09-12T16:52:57.752Z,97332.38
2018-09-12T16:55:25.236Z,97328.58
2018-09-12T16:57:52.814Z,97338.91
2018-09-12T17:00:20.281Z,97335.13
2018-09-12T17:02:47.727Z,97340.81
2018-09-12T17:05:15.147Z,97337.11
2018-09-12T17:07:42.599Z,97342.88
2018-09-12T17:10:10.106Z,97337.17
2018-09-12T17:12:37.625Z,97332.23
2018-09-12T17:15:05.140Z,97339.22
2018-09-12T17:17:32.637Z,97339.56
2018-09-12T17:20:00.068Z,97343.86
2018-09-12T17:22:27.452Z,97341.70
2018-09-12T17:24:54.890Z,97341.09
2018-09-12T17:27:22.331Z,97345.15
2018-09-12T17:29:49.894Z,97342.48
2018-09-12T17:32:17.367Z,97340.02
2018-09-12T17:34:44.310Z,97343.55
2018-09-12T17:37:11.324Z,97345.11
2018-09-12T17:39:38.303Z,97346.03
2018-09-12T17:42:05.406Z,97346.97
2018-09-12T17:44:32.435Z,97337.09
2018-09-12T17:46:59.443Z,97347.78
2018-09-12T17:49:26.430Z,97345.09
2018-09-12T17:51:53.436Z,97351.63
2018-09-12T17:54:20.445Z,97353.38
2018-09-12T17:56:47.888Z,97349.63
2018-09-12T17:59:15.356Z,97353.98
2018-09-12T18:01:42.347Z,97356.42
2018-09-12T18:04:09.872Z,97353.70
2018-09-12T18:06:37.304Z,97358.16
2018-09-12T18:09:04.261Z,97364.98
2018-09-12T18:11:31.248Z,97370.91
2018-09-12T18:13:58.389Z,97364.02
2018-09-12T18:16:25.702Z,97370.47
2018-09-12T18:18:52.675Z,97374.92
2018-09-12T18:21:19.734Z,97374.51
2018-09-12T18:23:48.093Z,97378.03
2018-09-12T18:26:15.063Z,97379.16
2018-09-12T18:28:42.622Z,97376.12
2018-09-12T18:31:09.644Z,97377.97
2018-09-12T18:33:36.695Z,97378.68
2018-09-12T18:36:04.138Z,97377.64
2018-09-12T18:38:31.668Z,97379.47
2018-09-12T18:40:59.200Z,97378.09
2018-09-12T18:43:26.196Z,97379.72
2018-09-12T18:45:53.655Z,97380.63
2018-09-12T18:48:21.147Z,97387.05
2018-09-12T18:50:48.235Z,97384.02
2018-09-12T18:53:15.264Z,97386.78
2018-09-12T18:55:42.803Z,97387.30
2018-09-12T18:58:10.206Z,97397.42
2018-09-12T19:00:37.608Z,97396.27
2018-09-12T19:03:05.114Z,97387.13
2018-09-12T19:05:32.685Z,97386.78
2018-09-12T19:08:00.118Z,97389.27
2018-09-12T19:10:27.661Z,97391.73
2018-09-12T19:12:55.083Z,97392.61
2018-09-12T19:15:22.558Z,97382.66
2018-09-12T19:17:50.040Z,97395.16
2018-09-12T19:20:17.026Z,97392.02
2018-09-12T19:22:44.006Z,97396.56
2018-09-12T19:25:10.994Z,97398.32
2018-09-12T19:27:38.472Z,97402.89
2018-09-12T19:30:05.923Z,97410.50
2018-09-12T19:32:33.356Z,97412.72
2018-09-12T19:35:00.829Z,97420.47
2018-09-12T19:37:28.332Z,97425.39
2018-09-12T19:39:55.931Z,97429.19
2018-09-12T19:42:23.403Z,97428.47
2018-09-12T19:44:50.876Z,97434.03
2018-09-12T19:47:18.353Z,97436.19
2018-09-12T19:49:45.852Z,97443.14
2018-09-12T19:52:13.264Z,97436.83
2018-09-12T19:54:40.853Z,97440.73
2018-09-12T19:57:08.390Z,97448.52
2018-09-12T19:59:35.872Z,97449.66
2018-09-12T20:02:03.295Z,97443.17
2018-09-12T20:04:30.851Z,97446.14
2018-09-12T20:06:58.678Z,97453.75
2018-09-12T20:09:26.132Z,97450.00
2018-09-12T20:11:53.612Z,97448.59
2018-09-12T20:14:21.108Z,97448.55
2018-09-12T20:16:49.515Z,97448.73
2018-09-12T20:19:16.996Z,97451.36
2018-09-12T20:21:44.458Z,97447.33
2018-09-12T20:24:11.949Z,97446.94
2018-09-12T20:26:39.411Z,97450.03
2018-09-12T20:29:06.876Z,97437.11
2018-09-12T20:31:34.320Z,97436.70
2018-09-12T20:34:01.842Z,97445.64
2018-09-12T20:36:29.287Z,97444.91
2018-09-12T20:38:56.822Z,97443.09
2018-09-12T20:41:24.272Z,97439.32
2018-09-12T20:43:51.703Z,97440.34
2018-09-12T20:46:19.146Z,97436.38
2018-09-12T20:48:46.603Z,97431.45
2018-09-12T20:51:14.040Z,97446.64
2018-09-12T20:53:41.020Z,97442.33
2018-09-12T20:56:08.002Z,97445.49
2018-09-12T20:58:35.017Z,97443.09
2018-09-12T21:01:01.958Z,97450.91
2018-09-12T21:03:29.048Z,97441.64
2018-09-12T21:05:56.028Z,97446.29
2018-09-12T21:08:23.446Z,97453.59
2018-09-12T21:10:50.962Z,97456.28
2018-09-12T21:13:18.415Z,97459.08
2018-09-12T21:15:45.854Z,97450.95
2018-09-12T21:18:13.425Z,97446.48
2018-09-12T21:20:40.432Z,97443.09
2018-09-12T21:23:08.071Z,97447.59
2018-09-12T21:25:35.480Z,97441.53
2018-09-12T21:28:02.954Z,97432.31
2018-09-12T21:30:30.491Z,97437.14
2018-09-12T21:32:57.951Z,97437.83
2018-09-12T21:35:25.415Z,97433.31
2018-09-12T21:37:52.872Z,97434.45
2018-09-12T21:40:20.367Z,97434.20
2018-09-12T21:42:47.771Z,97432.69
2018-09-12T21:45:15.256Z,97432.97
2018-09-12T21:47:42.739Z,97437.93
2018-09-12T21:50:10.176Z,97440.30
2018-09-12T21:52:37.659Z,97436.11
2018-09-12T21:55:05.120Z,97434.32
2018-09-12T21:57:32.523Z,97434.63
2018-09-12T21:59:59.981Z,97431.94
2018-09-12T22:02:27.390Z,97426.44
2018-09-12T22:04:54.907Z,97433.16
2018-09-12T22:07:22.402Z,97429.37
2018-09-12T22:09:50.274Z,97439.73
2018-09-12T22:12:17.741Z,97434.81
2018-09-12T22:14:45.202Z,97435.67
2018-09-12T22:17:12.647Z,97444.14
2018-09-12T22:19:40.060Z,97447.89
2018-09-12T22:22:07.471Z,97447.92
2018-09-12T22:24:34.870Z,97454.36
2018-09-12T22:27:02.368Z,97454.70
2018-09-12T22:29:29.851Z,97451.87
2018-09-12T22:31:57.275Z,97455.27
2018-09-12T22:34:24.786Z,97458.31
2018-09-12T22:36:52.207Z,97455.03
2018-09-12T22:39:19.642Z,97461.21
2018-09-12T22:41:47.070Z,97456.92
2018-09-12T22:44:14.556Z,97463.41
2018-09-12T22:46:42.052Z,97457.55
2018-09-12T22:49:09.509Z,97463.26
2018-09-12T22:51:36.977Z,97463.02
2018-09-12T22:54:04.461Z,97456.02
2018-09-12T22:56:31.944Z,97452.08
2018-09-12T22:58:59.427Z,97444.48
2018-09-12T23:01:26.919Z,97443.14
2018-09-12T23:03:54.378Z,97446.64
2018-09-12T23:06:21.806Z,97451.23
2018-09-12T23:08:49.376Z,97453.09
2018-09-12T23:11:16.834Z,97449.99
2018-09-12T23:13:44.276Z,97449.70
2018-09-12T23:16:11.745Z,97444.08
2018-09-12T23:18:39.183Z,97441.55
2018-09-12T23:21:06.681Z,97445.33
2018-09-12T23:23:34.239Z,97433.31
2018-09-12T23:26:01.699Z,97435.61
2018-09-12T23:28:29.119Z,97437.47
2018-09-12T23:30:56.611Z,97435.30
2018-09-12T23:33:24.998Z,97428.23
2018-09-12T23:35:52.422Z,97426.88
2018-09-12T23:38:19.847Z,97431.20
2018-09-12T23:40:47.360Z,97425.13
2018-09-12T23:43:14.822Z,97421.81
2018-09-12T23:45:41.854Z,97423.52
2018-09-12T23:48:09.631Z,97420.06
2018-09-12T23:50:36.603Z,97417.77
2018-09-12T23:53:03.603Z,97420.82
2018-09-12T23:55:30.679Z,97416.45
2018-09-12T23:57:57.689Z,97420.84
